sensor_id;sensor_type;location;lat;lon;timestamp;temperature;humidity
24374;DHT22;12498;50.880;12.096;2022-09-01T00:00:33;16.50;99.90
24374;DHT22;12498;50.880;12.096;2022-09-01T00:02:58;16.50;99.90
24374;DHT22;12498;50.880;12.096;2022-09-01T00:05:24;16.40;99.90
24374;DHT22;12498;50.880;12.096;2022-09-01T00:07:50;16.40;99.90
24374;DHT22;12498;50.880;12.096;2022-09-01T00:10:15;16.40;99.90
24374;DHT22;12498;50.880;12.096;2022-09-01T00:12:41;16.40;99.90
24374;DHT22;12498;50.880;12.096;2022-09-01T00:15:09;16.50;99.90
24374;DHT22;12498;50.880;12.096;2022-09-01T00:17:36;16.40;98.00
24374;DHT22;12498;50.880;12.096;2022-09-01T00:20:03;16.40;97.70
24374;DHT22;12498;50.880;12.096;2022-09-01T00:22:29;16.30;97.70
24374;DHT22;12498;50.880;12.096;2022-09-01T00:24:54;16.30;98.30
24374;DHT22;12498;50.880;12.096;2022-09-01T00:27:23;16.20;99.40
24374;DHT22;12498;50.880;12.096;2022-09-01T00:29:49;16.20;94.90
24374;DHT22;12498;50.880;12.096;2022-09-01T00:32:15;16.10;98.10
24374;DHT22;12498;50.880;12.096;2022-09-01T00:34:40;16.10;98.30
24374;DHT22;12498;50.880;12.096;2022-09-01T00:37:06;16.00;95.60
24374;DHT22;12498;50.880;12.096;2022-09-01T00:39:32;16.00;97.00
24374;DHT22;12498;50.880;12.096;2022-09-01T00:41:58;16.00;94.80
24374;DHT22;12498;50.880;12.096;2022-09-01T00:44:24;16.00;93.80
24374;DHT22;12498;50.880;12.096;2022-09-01T00:46:53;15.90;92.80
24374;DHT22;12498;50.880;12.096;2022-09-01T00:49:21;15.80;93.60
24374;DHT22;12498;50.880;12.096;2022-09-01T00:51:55;15.70;94.00
24374;DHT22;12498;50.880;12.096;2022-09-01T00:54:25;15.70;93.10
24374;DHT22;12498;50.880;12.096;2022-09-01T00:56:53;15.70;93.00
24374;DHT22;12498;50.880;12.096;2022-09-01T00:59:21;15.60;92.50
24374;DHT22;12498;50.880;12.096;2022-09-01T01:01:47;15.60;94.90
24374;DHT22;12498;50.880;12.096;2022-09-01T01:04:13;15.60;96.00
24374;DHT22;12498;50.880;12.096;2022-09-01T01:06:48;15.60;94.20
24374;DHT22;12498;50.880;12.096;2022-09-01T01:09:23;15.50;93.90
24374;DHT22;12498;50.880;12.096;2022-09-01T01:11:49;15.50;94.00
24374;DHT22;12498;50.880;12.096;2022-09-01T01:14:15;15.40;94.30
24374;DHT22;12498;50.880;12.096;2022-09-01T01:16:46;15.30;99.20
24374;DHT22;12498;50.880;12.096;2022-09-01T01:22:42;15.40;97.40
24374;DHT22;12498;50.880;12.096;2022-09-01T01:28:18;15.30;97.00
24374;DHT22;12498;50.880;12.096;2022-09-01T01:30:50;15.30;97.00
24374;DHT22;12498;50.880;12.096;2022-09-01T01:33:18;15.30;97.10
24374;DHT22;12498;50.880;12.096;2022-09-01T01:35:43;15.20;98.10
24374;DHT22;12498;50.880;12.096;2022-09-01T01:38:09;15.20;99.90
24374;DHT22;12498;50.880;12.096;2022-09-01T01:40:37;15.10;99.90
24374;DHT22;12498;50.880;12.096;2022-09-01T01:43:04;15.10;99.90
24374;DHT22;12498;50.880;12.096;2022-09-01T01:45:30;15.00;99.90
24374;DHT22;12498;50.880;12.096;2022-09-01T01:47:56;15.00;99.90
24374;DHT22;12498;50.880;12.096;2022-09-01T01:50:28;15.00;99.90
24374;DHT22;12498;50.880;12.096;2022-09-01T01:52:59;14.90;99.90
24374;DHT22;12498;50.880;12.096;2022-09-01T01:55:26;14.90;99.90
24374;DHT22;12498;50.880;12.096;2022-09-01T01:57:53;14.90;99.90
24374;DHT22;12498;50.880;12.096;2022-09-01T02:00:23;14.80;99.90
24374;DHT22;12498;50.880;12.096;2022-09-01T02:02:50;14.80;99.90
24374;DHT22;12498;50.880;12.096;2022-09-01T02:05:23;14.70;99.90
24374;DHT22;12498;50.880;12.096;2022-09-01T02:07:51;14.70;99.90
24374;DHT22;12498;50.880;12.096;2022-09-01T02:10:21;14.60;99.90
24374;DHT22;12498;50.880;12.096;2022-09-01T02:12:48;14.60;99.90
24374;DHT22;12498;50.880;12.096;2022-09-01T02:15:14;14.50;99.90
24374;DHT22;12498;50.880;12.096;2022-09-01T02:17:40;14.50;99.90
24374;DHT22;12498;50.880;12.096;2022-09-01T02:20:08;14.50;99.90
24374;DHT22;12498;50.880;12.096;2022-09-01T02:22:34;14.50;99.90
24374;DHT22;12498;50.880;12.096;2022-09-01T02:25:03;14.40;99.90
24374;DHT22;12498;50.880;12.096;2022-09-01T02:27:30;14.40;99.90
24374;DHT22;12498;50.880;12.096;2022-09-01T02:30:01;14.30;99.90
24374;DHT22;12498;50.880;12.096;2022-09-01T02:32:27;14.30;99.90
24374;DHT22;12498;50.880;12.096;2022-09-01T02:34:52;14.30;99.90
24374;DHT22;12498;50.880;12.096;2022-09-01T02:37:19;14.20;99.90
24374;DHT22;12498;50.880;12.096;2022-09-01T02:39:48;14.30;99.90
24374;DHT22;12498;50.880;12.096;2022-09-01T02:42:14;14.30;99.90
24374;DHT22;12498;50.880;12.096;2022-09-01T02:44:40;14.20;99.90
24374;DHT22;12498;50.880;12.096;2022-09-01T02:47:08;14.20;99.90
24374;DHT22;12498;50.880;12.096;2022-09-01T02:49:34;14.20;99.90
24374;DHT22;12498;50.880;12.096;2022-09-01T02:52:00;14.20;99.90
24374;DHT22;12498;50.880;12.096;2022-09-01T02:54:27;14.10;99.90
24374;DHT22;12498;50.880;12.096;2022-09-01T02:56:54;14.10;99.90
24374;DHT22;12498;50.880;12.096;2022-09-01T02:59:22;14.10;99.90
24374;DHT22;12498;50.880;12.096;2022-09-01T03:01:50;14.10;99.90
24374;DHT22;12498;50.880;12.096;2022-09-01T03:04:17;14.00;99.90
24374;DHT22;12498;50.880;12.096;2022-09-01T03:06:43;14.10;99.90
24374;DHT22;12498;50.880;12.096;2022-09-01T03:09:12;14.10;99.90
24374;DHT22;12498;50.880;12.096;2022-09-01T03:11:41;14.10;99.90
24374;DHT22;12498;50.880;12.096;2022-09-01T03:14:07;14.10;99.90
24374;DHT22;12498;50.880;12.096;2022-09-01T03:16:34;14.10;99.90
24374;DHT22;12498;50.880;12.096;2022-09-01T03:19:01;14.10;99.90
24374;DHT22;12498;50.880;12.096;2022-09-01T03:21:28;14.10;99.90
24374;DHT22;12498;50.880;12.096;2022-09-01T03:23:56;14.10;99.90
24374;DHT22;12498;50.880;12.096;2022-09-01T03:26:23;14.10;99.90
24374;DHT22;12498;50.880;12.096;2022-09-01T03:28:50;14.10;99.90
24374;DHT22;12498;50.880;12.096;2022-09-01T03:31:17;14.00;99.90
24374;DHT22;12498;50.880;12.096;2022-09-01T03:33:43;13.60;99.90
24374;DHT22;12498;50.880;12.096;2022-09-01T03:36:09;14.00;99.90
24374;DHT22;12498;50.880;12.096;2022-09-01T03:38:44;14.00;99.90
24374;DHT22;12498;50.880;12.096;2022-09-01T03:41:14;14.00;99.90
24374;DHT22;12498;50.880;12.096;2022-09-01T03:43:42;14.00;99.90
24374;DHT22;12498;50.880;12.096;2022-09-01T03:46:08;14.00;99.90
24374;DHT22;12498;50.880;12.096;2022-09-01T03:48:36;14.00;99.90
24374;DHT22;12498;50.880;12.096;2022-09-01T03:51:04;14.00;99.90
24374;DHT22;12498;50.880;12.096;2022-09-01T03:53:32;14.00;99.90
24374;DHT22;12498;50.880;12.096;2022-09-01T03:56:01;14.00;99.90
24374;DHT22;12498;50.880;12.096;2022-09-01T03:58:28;14.00;99.90
24374;DHT22;12498;50.880;12.096;2022-09-01T04:00:56;14.00;99.90
24374;DHT22;12498;50.880;12.096;2022-09-01T04:03:25;14.00;99.90
24374;DHT22;12498;50.880;12.096;2022-09-01T04:05:52;14.00;99.90
24374;DHT22;12498;50.880;12.096;2022-09-01T04:08:19;14.00;99.90
24374;DHT22;12498;50.880;12.096;2022-09-01T04:10:50;14.00;99.90
24374;DHT22;12498;50.880;12.096;2022-09-01T04:13:24;14.10;99.90
24374;DHT22;12498;50.880;12.096;2022-09-01T04:15:51;14.10;99.90
24374;DHT22;12498;50.880;12.096;2022-09-01T04:18:18;14.00;99.90
24374;DHT22;12498;50.880;12.096;2022-09-01T04:20:50;14.00;99.90
24374;DHT22;12498;50.880;12.096;2022-09-01T04:23:22;13.90;99.90
24374;DHT22;12498;50.880;12.096;2022-09-01T04:25:54;13.90;99.90
24374;DHT22;12498;50.880;12.096;2022-09-01T04:28:22;14.00;99.90
24374;DHT22;12498;50.880;12.096;2022-09-01T04:30:56;14.60;99.90
24374;DHT22;12498;50.880;12.096;2022-09-01T04:33:26;14.80;99.90
24374;DHT22;12498;50.880;12.096;2022-09-01T04:36:03;15.00;99.90
24374;DHT22;12498;50.880;12.096;2022-09-01T04:38:29;14.90;99.90
24374;DHT22;12498;50.880;12.096;2022-09-01T04:40:55;15.00;99.90
24374;DHT22;12498;50.880;12.096;2022-09-01T04:43:25;15.10;99.90
24374;DHT22;12498;50.880;12.096;2022-09-01T04:45:51;15.10;99.90
24374;DHT22;12498;50.880;12.096;2022-09-01T04:48:19;15.00;99.90
24374;DHT22;12498;50.880;12.096;2022-09-01T04:50:47;15.00;99.90
24374;DHT22;12498;50.880;12.096;2022-09-01T04:53:15;15.00;99.90
24374;DHT22;12498;50.880;12.096;2022-09-01T04:55:43;15.00;99.90
24374;DHT22;12498;50.880;12.096;2022-09-01T04:58:10;15.10;99.90
24374;DHT22;12498;50.880;12.096;2022-09-01T05:00:43;15.20;99.90
24374;DHT22;12498;50.880;12.096;2022-09-01T05:03:10;15.20;99.90
24374;DHT22;12498;50.880;12.096;2022-09-01T05:05:42;15.10;99.90
24374;DHT22;12498;50.880;12.096;2022-09-01T05:08:10;15.20;99.90
24374;DHT22;12498;50.880;12.096;2022-09-01T05:10:44;14.90;99.90
24374;DHT22;12498;50.880;12.096;2022-09-01T05:13:12;14.80;99.90
24374;DHT22;12498;50.880;12.096;2022-09-01T05:15:39;14.70;99.90
24374;DHT22;12498;50.880;12.096;2022-09-01T05:18:16;14.60;99.90
24374;DHT22;12498;50.880;12.096;2022-09-01T05:20:51;14.50;99.90
24374;DHT22;12498;50.880;12.096;2022-09-01T05:23:18;14.40;99.90
24374;DHT22;12498;50.880;12.096;2022-09-01T05:25:45;14.40;99.90
24374;DHT22;12498;50.880;12.096;2022-09-01T05:28:13;14.40;99.90
24374;DHT22;12498;50.880;12.096;2022-09-01T05:30:40;14.30;99.90
24374;DHT22;12498;50.880;12.096;2022-09-01T05:33:07;14.30;99.90
24374;DHT22;12498;50.880;12.096;2022-09-01T05:35:37;14.30;99.90
24374;DHT22;12498;50.880;12.096;2022-09-01T05:38:06;14.30;99.90
24374;DHT22;12498;50.880;12.096;2022-09-01T05:40:35;14.20;99.90
24374;DHT22;12498;50.880;12.096;2022-09-01T05:43:07;14.20;99.90
24374;DHT22;12498;50.880;12.096;2022-09-01T05:45:35;14.30;99.90
24374;DHT22;12498;50.880;12.096;2022-09-01T05:48:07;14.30;99.90
24374;DHT22;12498;50.880;12.096;2022-09-01T05:50:34;14.30;99.90
24374;DHT22;12498;50.880;12.096;2022-09-01T05:53:00;14.30;99.90
24374;DHT22;12498;50.880;12.096;2022-09-01T05:55:27;14.30;99.90
24374;DHT22;12498;50.880;12.096;2022-09-01T05:57:52;14.30;99.90
24374;DHT22;12498;50.880;12.096;2022-09-01T06:00:19;14.20;99.90
24374;DHT22;12498;50.880;12.096;2022-09-01T06:02:45;14.20;99.90
24374;DHT22;12498;50.880;12.096;2022-09-01T06:05:11;14.30;99.90
24374;DHT22;12498;50.880;12.096;2022-09-01T06:07:39;14.30;99.90
24374;DHT22;12498;50.880;12.096;2022-09-01T06:10:07;14.20;99.90
24374;DHT22;12498;50.880;12.096;2022-09-01T06:12:33;14.20;99.90
24374;DHT22;12498;50.880;12.096;2022-09-01T06:14:59;14.10;99.90
24374;DHT22;12498;50.880;12.096;2022-09-01T06:17:26;14.20;99.90
24374;DHT22;12498;50.880;12.096;2022-09-01T06:19:54;14.20;99.90
24374;DHT22;12498;50.880;12.096;2022-09-01T06:22:24;14.20;99.90
24374;DHT22;12498;50.880;12.096;2022-09-01T06:24:51;14.30;99.90
24374;DHT22;12498;50.880;12.096;2022-09-01T06:27:19;14.30;99.90
24374;DHT22;12498;50.880;12.096;2022-09-01T06:29:45;14.40;99.90
24374;DHT22;12498;50.880;12.096;2022-09-01T06:32:12;14.50;99.90
24374;DHT22;12498;50.880;12.096;2022-09-01T06:34:39;14.50;99.90
24374;DHT22;12498;50.880;12.096;2022-09-01T06:37:06;14.60;99.90
24374;DHT22;12498;50.880;12.096;2022-09-01T06:39:32;14.60;99.90
24374;DHT22;12498;50.880;12.096;2022-09-01T06:41:58;14.60;99.90
24374;DHT22;12498;50.880;12.096;2022-09-01T06:44:27;14.70;99.90
24374;DHT22;12498;50.880;12.096;2022-09-01T06:46:55;14.70;99.90
24374;DHT22;12498;50.880;12.096;2022-09-01T06:49:22;14.70;99.90
24374;DHT22;12498;50.880;12.096;2022-09-01T06:51:57;14.80;99.90
24374;DHT22;12498;50.880;12.096;2022-09-01T06:54:23;14.80;99.90
24374;DHT22;12498;50.880;12.096;2022-09-01T06:56:50;14.80;99.90
24374;DHT22;12498;50.880;12.096;2022-09-01T06:59:17;14.70;99.90
24374;DHT22;12498;50.880;12.096;2022-09-01T07:01:42;14.70;99.90
24374;DHT22;12498;50.880;12.096;2022-09-01T07:04:08;14.70;99.90
24374;DHT22;12498;50.880;12.096;2022-09-01T07:06:34;14.80;99.90
24374;DHT22;12498;50.880;12.096;2022-09-01T07:09:01;14.90;99.90
24374;DHT22;12498;50.880;12.096;2022-09-01T07:11:30;15.00;99.90
24374;DHT22;12498;50.880;12.096;2022-09-01T07:13:58;15.10;99.90
24374;DHT22;12498;50.880;12.096;2022-09-01T07:16:28;15.20;99.90
24374;DHT22;12498;50.880;12.096;2022-09-01T07:18:57;15.20;99.90
24374;DHT22;12498;50.880;12.096;2022-09-01T07:21:25;15.20;99.90
24374;DHT22;12498;50.880;12.096;2022-09-01T07:23:51;15.20;99.90
24374;DHT22;12498;50.880;12.096;2022-09-01T07:26:18;15.20;99.90
24374;DHT22;12498;50.880;12.096;2022-09-01T07:28:48;15.40;99.90
24374;DHT22;12498;50.880;12.096;2022-09-01T07:31:26;15.40;99.90
24374;DHT22;12498;50.880;12.096;2022-09-01T07:33:54;15.50;99.90
24374;DHT22;12498;50.880;12.096;2022-09-01T07:36:23;15.50;99.90
24374;DHT22;12498;50.880;12.096;2022-09-01T07:38:49;15.50;99.90
24374;DHT22;12498;50.880;12.096;2022-09-01T07:41:23;15.60;99.90
24374;DHT22;12498;50.880;12.096;2022-09-01T07:43:49;15.70;99.90
24374;DHT22;12498;50.880;12.096;2022-09-01T07:46:19;15.70;99.90
24374;DHT22;12498;50.880;12.096;2022-09-01T07:48:45;15.70;99.90
24374;DHT22;12498;50.880;12.096;2022-09-01T07:51:13;15.80;99.90
24374;DHT22;12498;50.880;12.096;2022-09-01T07:53:43;16.00;99.90
24374;DHT22;12498;50.880;12.096;2022-09-01T07:56:10;16.10;99.90
24374;DHT22;12498;50.880;12.096;2022-09-01T07:58:38;16.20;99.90
24374;DHT22;12498;50.880;12.096;2022-09-01T08:01:08;16.20;99.90
24374;DHT22;12498;50.880;12.096;2022-09-01T08:03:34;16.30;99.90
24374;DHT22;12498;50.880;12.096;2022-09-01T08:06:05;16.30;99.80
24374;DHT22;12498;50.880;12.096;2022-09-01T08:08:32;16.40;98.80
24374;DHT22;12498;50.880;12.096;2022-09-01T08:10:58;16.50;99.00
24374;DHT22;12498;50.880;12.096;2022-09-01T08:13:24;16.60;97.80
24374;DHT22;12498;50.880;12.096;2022-09-01T08:15:49;16.70;96.40
24374;DHT22;12498;50.880;12.096;2022-09-01T08:18:15;16.90;94.80
24374;DHT22;12498;50.880;12.096;2022-09-01T08:20:42;17.00;94.00
24374;DHT22;12498;50.880;12.096;2022-09-01T08:23:10;17.10;91.70
24374;DHT22;12498;50.880;12.096;2022-09-01T08:25:36;17.10;90.30
24374;DHT22;12498;50.880;12.096;2022-09-01T08:28:03;17.20;91.80
24374;DHT22;12498;50.880;12.096;2022-09-01T08:30:29;17.30;90.50
24374;DHT22;12498;50.880;12.096;2022-09-01T08:32:57;17.30;87.30
24374;DHT22;12498;50.880;12.096;2022-09-01T08:35:23;17.30;87.60
24374;DHT22;12498;50.880;12.096;2022-09-01T08:37:49;17.40;86.40
24374;DHT22;12498;50.880;12.096;2022-09-01T08:40:18;17.50;86.00
24374;DHT22;12498;50.880;12.096;2022-09-01T08:45:42;17.60;78.70
24374;DHT22;12498;50.880;12.096;2022-09-01T08:48:36;17.50;80.10
24374;DHT22;12498;50.880;12.096;2022-09-01T08:54:03;17.70;82.30
24374;DHT22;12498;50.880;12.096;2022-09-01T08:56:31;17.90;72.30
24374;DHT22;12498;50.880;12.096;2022-09-01T08:59:00;17.90;77.50
24374;DHT22;12498;50.880;12.096;2022-09-01T09:01:39;18.10;99.90
24374;DHT22;12498;50.880;12.096;2022-09-01T09:07:02;18.20;99.90
24374;DHT22;12498;50.880;12.096;2022-09-01T09:09:42;18.30;99.90
24374;DHT22;12498;50.880;12.096;2022-09-01T09:15:06;18.50;99.90
24374;DHT22;12498;50.880;12.096;2022-09-01T09:17:40;18.60;99.90
24374;DHT22;12498;50.880;12.096;2022-09-01T09:20:10;18.70;99.90
24374;DHT22;12498;50.880;12.096;2022-09-01T09:22:36;18.80;99.90
24374;DHT22;12498;50.880;12.096;2022-09-01T09:27:34;18.70;99.90
24374;DHT22;12498;50.880;12.096;2022-09-01T09:33:03;18.80;99.90
24374;DHT22;12498;50.880;12.096;2022-09-01T09:35:45;18.90;99.90
24374;DHT22;12498;50.880;12.096;2022-09-01T09:41:14;19.10;99.90
24374;DHT22;12498;50.880;12.096;2022-09-01T09:51:35;19.70;99.90
24374;DHT22;12498;50.880;12.096;2022-09-01T09:54:22;19.80;99.90
24374;DHT22;12498;50.880;12.096;2022-09-01T09:57:01;20.00;99.90
24374;DHT22;12498;50.880;12.096;2022-09-01T09:59:34;20.20;99.90
24374;DHT22;12498;50.880;12.096;2022-09-01T10:02:15;20.60;99.90
24374;DHT22;12498;50.880;12.096;2022-09-01T10:04:42;21.30;99.90
24374;DHT22;12498;50.880;12.096;2022-09-01T10:07:31;21.30;99.90
24374;DHT22;12498;50.880;12.096;2022-09-01T10:10:00;21.40;99.90
24374;DHT22;12498;50.880;12.096;2022-09-01T10:12:27;21.50;99.90
24374;DHT22;12498;50.880;12.096;2022-09-01T10:15:05;22.10;99.90
24374;DHT22;12498;50.880;12.096;2022-09-01T10:17:38;22.20;99.90
24374;DHT22;12498;50.880;12.096;2022-09-01T10:20:13;22.80;99.90
24374;DHT22;12498;50.880;12.096;2022-09-01T10:22:41;24.40;99.90
24374;DHT22;12498;50.880;12.096;2022-09-01T10:25:15;25.20;96.60
24374;DHT22;12498;50.880;12.096;2022-09-01T10:27:45;25.30;95.60
24374;DHT22;12498;50.880;12.096;2022-09-01T10:30:19;25.10;94.80
24374;DHT22;12498;50.880;12.096;2022-09-01T10:32:53;26.00;94.40
24374;DHT22;12498;50.880;12.096;2022-09-01T10:35:29;27.80;90.40
24374;DHT22;12498;50.880;12.096;2022-09-01T10:37:58;28.30;84.70
24374;DHT22;12498;50.880;12.096;2022-09-01T10:42:58;30.30;66.40
24374;DHT22;12498;50.880;12.096;2022-09-01T10:45:36;29.20;70.10
24374;DHT22;12498;50.880;12.096;2022-09-01T10:50:50;32.10;59.60
24374;DHT22;12498;50.880;12.096;2022-09-01T10:56:16;32.30;55.50
24374;DHT22;12498;50.880;12.096;2022-09-01T11:01:13;33.90;51.00
24374;DHT22;12498;50.880;12.096;2022-09-01T11:03:53;34.30;50.20
24374;DHT22;12498;50.880;12.096;2022-09-01T11:09:01;33.30;49.60
24374;DHT22;12498;50.880;12.096;2022-09-01T11:11:34;33.60;47.30
24374;DHT22;12498;50.880;12.096;2022-09-01T11:14:18;31.40;49.10
24374;DHT22;12498;50.880;12.096;2022-09-01T11:17:11;29.90;51.10
24374;DHT22;12498;50.880;12.096;2022-09-01T11:22:14;28.10;54.70
24374;DHT22;12498;50.880;12.096;2022-09-01T11:24:46;29.80;52.70
24374;DHT22;12498;50.880;12.096;2022-09-01T11:30:39;34.00;44.20
24374;DHT22;12498;50.880;12.096;2022-09-01T11:35:43;36.50;41.00
24374;DHT22;12498;50.880;12.096;2022-09-01T11:38:12;37.30;39.50
24374;DHT22;12498;50.880;12.096;2022-09-01T11:40:39;36.70;40.20
24374;DHT22;12498;50.880;12.096;2022-09-01T11:43:15;36.60;40.30
24374;DHT22;12498;50.880;12.096;2022-09-01T11:46:04;37.00;38.50
24374;DHT22;12498;50.880;12.096;2022-09-01T11:48:32;36.90;38.60
24374;DHT22;12498;50.880;12.096;2022-09-01T11:51:00;37.40;37.50
24374;DHT22;12498;50.880;12.096;2022-09-01T11:53:27;37.00;37.80
24374;DHT22;12498;50.880;12.096;2022-09-01T11:56:18;37.20;37.80
24374;DHT22;12498;50.880;12.096;2022-09-01T11:58:47;35.20;38.50
24374;DHT22;12498;50.880;12.096;2022-09-01T12:01:38;32.50;42.50
24374;DHT22;12498;50.880;12.096;2022-09-01T12:06:49;29.40;48.40
24374;DHT22;12498;50.880;12.096;2022-09-01T12:09:15;30.10;48.10
24374;DHT22;12498;50.880;12.096;2022-09-01T12:11:41;32.20;45.50
24374;DHT22;12498;50.880;12.096;2022-09-01T12:14:08;34.00;42.50
24374;DHT22;12498;50.880;12.096;2022-09-01T12:16:36;32.60;43.40
24374;DHT22;12498;50.880;12.096;2022-09-01T12:19:05;30.60;46.40
24374;DHT22;12498;50.880;12.096;2022-09-01T12:21:39;30.40;46.90
24374;DHT22;12498;50.880;12.096;2022-09-01T12:24:14;31.20;46.00
24374;DHT22;12498;50.880;12.096;2022-09-01T12:26:40;32.00;44.70
24374;DHT22;12498;50.880;12.096;2022-09-01T12:29:07;32.90;44.00
24374;DHT22;12498;50.880;12.096;2022-09-01T12:31:33;33.70;42.20
24374;DHT22;12498;50.880;12.096;2022-09-01T12:33:59;33.80;42.00
24374;DHT22;12498;50.880;12.096;2022-09-01T12:36:34;33.70;42.00
24374;DHT22;12498;50.880;12.096;2022-09-01T12:39:21;34.20;41.50
24374;DHT22;12498;50.880;12.096;2022-09-01T12:45:03;33.00;41.50
24374;DHT22;12498;50.880;12.096;2022-09-01T12:49:59;34.40;39.70
24374;DHT22;12498;50.880;12.096;2022-09-01T12:52:27;34.40;39.30
24374;DHT22;12498;50.880;12.096;2022-09-01T12:57:32;33.90;40.30
24374;DHT22;12498;50.880;12.096;2022-09-01T13:08:00;36.00;37.30
24374;DHT22;12498;50.880;12.096;2022-09-01T13:10:31;36.80;36.10
24374;DHT22;12498;50.880;12.096;2022-09-01T13:12:57;35.90;36.70
24374;DHT22;12498;50.880;12.096;2022-09-01T13:15:24;35.30;37.40
24374;DHT22;12498;50.880;12.096;2022-09-01T13:17:50;35.10;37.50
24374;DHT22;12498;50.880;12.096;2022-09-01T13:20:16;35.70;37.10
24374;DHT22;12498;50.880;12.096;2022-09-01T13:22:42;36.10;36.00
24374;DHT22;12498;50.880;12.096;2022-09-01T13:25:14;36.30;35.90
24374;DHT22;12498;50.880;12.096;2022-09-01T13:27:40;35.70;37.10
24374;DHT22;12498;50.880;12.096;2022-09-01T13:30:10;35.70;36.10
24374;DHT22;12498;50.880;12.096;2022-09-01T13:32:37;36.00;35.70
24374;DHT22;12498;50.880;12.096;2022-09-01T13:35:03;35.60;36.60
24374;DHT22;12498;50.880;12.096;2022-09-01T13:37:29;35.60;36.20
24374;DHT22;12498;50.880;12.096;2022-09-01T13:39:54;35.20;36.80
24374;DHT22;12498;50.880;12.096;2022-09-01T13:42:20;34.90;36.80
24374;DHT22;12498;50.880;12.096;2022-09-01T13:44:46;35.10;36.70
24374;DHT22;12498;50.880;12.096;2022-09-01T13:47:12;35.30;36.50
24374;DHT22;12498;50.880;12.096;2022-09-01T13:49:37;34.80;37.10
24374;DHT22;12498;50.880;12.096;2022-09-01T13:52:03;34.10;38.30
24374;DHT22;12498;50.880;12.096;2022-09-01T13:54:29;33.50;37.80
24374;DHT22;12498;50.880;12.096;2022-09-01T13:56:54;33.90;37.90
24374;DHT22;12498;50.880;12.096;2022-09-01T13:59:20;34.90;36.60
24374;DHT22;12498;50.880;12.096;2022-09-01T14:01:46;35.30;35.20
24374;DHT22;12498;50.880;12.096;2022-09-01T14:04:11;35.70;34.90
24374;DHT22;12498;50.880;12.096;2022-09-01T14:06:41;35.70;33.80
24374;DHT22;12498;50.880;12.096;2022-09-01T14:09:09;35.30;34.30
24374;DHT22;12498;50.880;12.096;2022-09-01T14:11:35;35.10;34.30
24374;DHT22;12498;50.880;12.096;2022-09-01T14:14:01;35.00;34.80
24374;DHT22;12498;50.880;12.096;2022-09-01T14:16:26;35.30;33.60
24374;DHT22;12498;50.880;12.096;2022-09-01T14:18:52;35.30;33.50
24374;DHT22;12498;50.880;12.096;2022-09-01T14:21:18;35.00;33.50
24374;DHT22;12498;50.880;12.096;2022-09-01T14:23:44;34.50;34.00
24374;DHT22;12498;50.880;12.096;2022-09-01T14:26:12;34.40;34.20
24374;DHT22;12498;50.880;12.096;2022-09-01T14:28:40;34.30;33.50
24374;DHT22;12498;50.880;12.096;2022-09-01T14:31:10;33.40;34.50
24374;DHT22;12498;50.880;12.096;2022-09-01T14:33:37;33.40;34.20
24374;DHT22;12498;50.880;12.096;2022-09-01T14:36:03;33.40;34.20
24374;DHT22;12498;50.880;12.096;2022-09-01T14:38:30;33.20;34.80
24374;DHT22;12498;50.880;12.096;2022-09-01T14:40:55;33.10;35.10
24374;DHT22;12498;50.880;12.096;2022-09-01T14:43:21;32.80;35.60
24374;DHT22;12498;50.880;12.096;2022-09-01T14:45:48;32.30;35.50
24374;DHT22;12498;50.880;12.096;2022-09-01T14:48:15;31.50;36.70
24374;DHT22;12498;50.880;12.096;2022-09-01T14:50:44;30.80;37.80
24374;DHT22;12498;50.880;12.096;2022-09-01T14:53:10;30.10;37.70
24374;DHT22;12498;50.880;12.096;2022-09-01T14:55:36;29.70;38.90
24374;DHT22;12498;50.880;12.096;2022-09-01T14:58:01;28.90;39.10
24374;DHT22;12498;50.880;12.096;2022-09-01T15:00:28;28.70;39.80
24374;DHT22;12498;50.880;12.096;2022-09-01T15:02:54;28.40;40.20
24374;DHT22;12498;50.880;12.096;2022-09-01T15:05:21;28.10;41.00
24374;DHT22;12498;50.880;12.096;2022-09-01T15:07:47;28.20;40.40
24374;DHT22;12498;50.880;12.096;2022-09-01T15:10:17;28.20;40.90
24374;DHT22;12498;50.880;12.096;2022-09-01T15:12:42;27.90;41.30
24374;DHT22;12498;50.880;12.096;2022-09-01T15:15:08;27.70;41.90
24374;DHT22;12498;50.880;12.096;2022-09-01T15:17:34;27.40;42.50
24374;DHT22;12498;50.880;12.096;2022-09-01T15:20:00;27.40;41.70
24374;DHT22;12498;50.880;12.096;2022-09-01T15:22:47;27.40;42.60
24374;DHT22;12498;50.880;12.096;2022-09-01T15:25:14;27.40;41.90
24374;DHT22;12498;50.880;12.096;2022-09-01T15:27:40;27.00;41.80
24374;DHT22;12498;50.880;12.096;2022-09-01T15:30:07;27.20;42.70
24374;DHT22;12498;50.880;12.096;2022-09-01T15:32:39;27.10;44.10
24374;DHT22;12498;50.880;12.096;2022-09-01T15:35:06;26.80;45.70
24374;DHT22;12498;50.880;12.096;2022-09-01T15:37:32;26.20;47.50
24374;DHT22;12498;50.880;12.096;2022-09-01T15:39:57;26.10;48.30
24374;DHT22;12498;50.880;12.096;2022-09-01T15:42:23;25.50;48.90
24374;DHT22;12498;50.880;12.096;2022-09-01T15:44:49;25.40;49.10
24374;DHT22;12498;50.880;12.096;2022-09-01T15:47:15;25.40;49.10
24374;DHT22;12498;50.880;12.096;2022-09-01T15:49:40;25.30;49.50
24374;DHT22;12498;50.880;12.096;2022-09-01T15:52:06;25.00;50.00
24374;DHT22;12498;50.880;12.096;2022-09-01T15:54:36;24.60;50.50
24374;DHT22;12498;50.880;12.096;2022-09-01T15:57:03;24.20;51.20
24374;DHT22;12498;50.880;12.096;2022-09-01T15:59:29;24.40;51.20
24374;DHT22;12498;50.880;12.096;2022-09-01T16:01:55;24.50;51.20
24374;DHT22;12498;50.880;12.096;2022-09-01T16:04:21;24.70;50.70
24374;DHT22;12498;50.880;12.096;2022-09-01T16:06:49;24.70;50.70
24374;DHT22;12498;50.880;12.096;2022-09-01T16:09:17;24.60;51.40
24374;DHT22;12498;50.880;12.096;2022-09-01T16:11:46;24.50;51.10
24374;DHT22;12498;50.880;12.096;2022-09-01T16:14:11;24.40;52.20
24374;DHT22;12498;50.880;12.096;2022-09-01T16:20:08;24.60;52.80
24374;DHT22;12498;50.880;12.096;2022-09-01T16:22:38;24.50;53.10
24374;DHT22;12498;50.880;12.096;2022-09-01T16:25:13;24.50;52.90
24374;DHT22;12498;50.880;12.096;2022-09-01T16:27:43;24.50;53.30
24374;DHT22;12498;50.880;12.096;2022-09-01T16:30:13;24.50;54.00
24374;DHT22;12498;50.880;12.096;2022-09-01T16:32:43;24.50;53.70
24374;DHT22;12498;50.880;12.096;2022-09-01T16:35:09;24.50;53.80
24374;DHT22;12498;50.880;12.096;2022-09-01T16:37:53;24.50;53.80
24374;DHT22;12498;50.880;12.096;2022-09-01T16:40:40;24.40;53.70
24374;DHT22;12498;50.880;12.096;2022-09-01T16:43:31;24.10;54.50